Página principal
METAR-TAF:

METAR-TAF

Aeroportos :

Ilha de São Vicente, Cabo Verde

Aeroporto de São Pedro

latitude: 16-49-59N, longitude: 25-03-25W, altura: 20 m

Observação actual do tempo

O boletim foi feito há 51 minutos, às 23:00 UTC
Vento 19 kt de es-nordeste
Temperatura 20°C
Humidade 78%
Pressão 1015 hPa
Visibilidade 10 km ou mais
Nuvens dispersasa uma altura de 1800 ft
Nuvens fragmentadasa uma altura de 10000 ft

METAR: GVSV 182300Z 06019KT 9999 SCT018 BKN100 20/16 Q1015 NOSIG

Hora: 22:51 (23:51 UTC)

Previsão

O boletim foi feito há 51 minutos, às 23:00 UTC
Previsão válida de 19 às 00 UTC a 20 às 06 UTC
Vento 20 kt de es-nordeste
Visibilidade 10 km ou mais
Nuvens dispersasa uma altura de 2000 ft
Temporariamente
de 19 às 10 UTC a 19 às 18 UTC
Vento 20 kt de es-nordeste com rajadas de 30 kt

TAF: GVSV 182300Z 1900/2006 06020KT 9999 SCT020 TEMPO 1910/1918 06020G30KT

Observações e previsões do tempo de mais de 4000 aeroportos (mensagens METAR e TAF).

As estações disponíveis são os pontos amarelos e vermelhos sobre o mapa.

Mova o rato sobre o mapa para ver o nome da estação.

Depois clique no ponto para visualizar as observações e previsões meteorológicas.

Para alterar o mapa : clique nos botões verdes com uma cruz preta para aumentar o zoom; no botão verde com uma pitada de zoom; ou nas setas verdes para mapas adjacentes.


METAR-TAF: